Oakdale, WI (54649)

6:18 AM CDT on September 20, 2014 (GMT -0500)
Volk | Change Station
CLOSE
Current Station
Airport
Location: Volk,
Elevation: 909 ft
Nearby Weather Stations

Elev 909 ft 43.94 °N, 90.25 °W | Updated 20 minutes ago

Clear
Clear
66 °F
Feels Like 66 °F
N
7
Wind Variable Wind from Variable

Today
High -- | Low -- °F
--% Chance of Precip.
Yesterday
High -- | Low -- °F
Precip. -- in
6:46 AM 7:02 PM
Waning Crescent, 13% visible
Pressure 29.75 in
Visibility 10.0 miles
Clouds Clear
Dew Point 66 °F
Humidity 100%
Rainfall 0.51 in
Snow Depth Not available.
UV 0 out of 12
Pollen .50 out of 12
Air Quality Not available.
Flu Activity Not available.
METAR KVOK 201058Z AUTO VRB06KT 10SM CLR 19/19 A2975 RMK AO2 SLP073 T01860186

More Conditions Fewer Conditions

Pressure 29.75 in
Visibility 10.0 miles
Clouds Clear
Dew Point 66 °F
Humidity 100%
Rainfall 0.51 in
Snow Depth Not available.
UV 0 out of 12
Pollen .50 out of 12
Air Quality Not available.
Flu Activity Not available.
METAR KVOK 201058Z AUTO VRB06KT 10SM CLR 19/19 A2975 RMK AO2 SLP073 T01860186

More Conditions Fewer Conditions

10-Day Weather Forecast

Almanac

Astronomy

Sep. 20, 2014 Rise Set
Actual Time 6:46 AM CDT 7:02 PM CDT
Civil Twilight 6:17 AM CDT 7:31 PM CDT
Nautical Twilight 5:43 AM CDT 8:05 PM CDT
Astronomical Twilight 5:08 AM CDT 8:39 PM CDT
Moon 3:20 AM CDT 5:10 PM CDT
Length of Visible Light 13h 13m
Length of Day
12h 16m
Tomorrow will be 2m 59s shorter.
Waning Crescent, 13% of the Moon is Illuminated
Today
Waning Crescent
Sep 24
New
Oct 1
First Quarter
Oct 8
Full
Oct 15
Last Quarter

Today's Extremes

State Highs State Lows

Community

WunderPhotos

Upload Photos

1,754,829 photos uploaded!

WunderBlogs® & News

Nearby

Snow Depth

Station Depth Elevation
No new snow has been reported.

Earthquake Activity

City Distance Mag. Time & Date
No recent earthquake activity has been reported nearby.
Minimum magnitude displayed is 2.5.

Coastal Water Temperatures

Place Temperature
No Stations Reporting

Nearby Weather Stations